createdAt,value
2018-10-21T00:01:16.146Z,8.60
2018-10-21T00:03:44.858Z,8.60
2018-10-21T00:06:13.624Z,8.80
2018-10-21T00:08:42.278Z,7.77
2018-10-21T00:11:10.955Z,7.93
2018-10-21T00:13:39.717Z,9.00
2018-10-21T00:16:09.287Z,7.57
2018-10-21T00:18:37.986Z,8.57
2018-10-21T00:21:07.155Z,7.73
2018-10-21T00:23:36.165Z,7.87
2018-10-21T00:26:05.442Z,8.47
2018-10-21T00:28:34.032Z,9.50
2018-10-21T00:31:02.627Z,9.60
2018-10-21T00:33:31.185Z,8.90
2018-10-21T00:35:59.804Z,8.33
2018-10-21T00:38:28.539Z,8.70
2018-10-21T00:40:57.757Z,9.10
2018-10-21T00:43:26.381Z,9.37
2018-10-21T00:45:55.038Z,8.33
2018-10-21T00:48:23.747Z,8.40
2018-10-21T00:50:52.436Z,8.63
2018-10-21T00:53:21.012Z,8.40
2018-10-21T00:55:49.677Z,9.50
2018-10-21T00:58:18.332Z,8.67
2018-10-21T01:00:46.954Z,9.10
2018-10-21T01:03:15.727Z,8.97
2018-10-21T01:05:46.929Z,9.40
2018-10-21T01:08:15.719Z,9.00
2018-10-21T01:10:44.479Z,9.23
2018-10-21T01:13:13.252Z,8.83
2018-10-21T01:15:41.965Z,9.70
2018-10-21T01:18:10.619Z,9.10
2018-10-21T01:20:39.246Z,9.50
2018-10-21T01:23:07.911Z,10.17
2018-10-21T01:25:36.576Z,9.83
2018-10-21T01:28:05.606Z,9.80
2018-10-21T01:30:34.162Z,9.90
2018-10-21T01:33:02.851Z,9.53
2018-10-21T01:35:31.435Z,9.30
2018-10-21T01:38:00.769Z,10.20
2018-10-21T01:40:48.589Z,8.70
2018-10-21T01:43:18.331Z,9.37
2018-10-21T01:45:47.431Z,8.60
2018-10-21T01:48:17.556Z,8.80
2018-10-21T01:50:46.301Z,9.40
2018-10-21T01:53:15.999Z,10.03
2018-10-21T01:55:44.651Z,10.10
2018-10-21T01:58:13.344Z,10.13
2018-10-21T02:00:42.615Z,9.00
2018-10-21T02:03:11.465Z,9.33
2018-10-21T02:05:40.736Z,8.70
2018-10-21T02:08:09.590Z,8.23
2018-10-21T02:10:38.185Z,8.77
2018-10-21T02:13:06.894Z,9.47
2018-10-21T02:15:35.484Z,9.60
2018-10-21T02:18:04.159Z,10.63
2018-10-21T02:20:32.684Z,8.83
2018-10-21T02:23:01.327Z,9.43
2018-10-21T02:25:30.041Z,8.00
2018-10-21T02:27:58.677Z,9.50
2018-10-21T02:30:30.193Z,9.97
2018-10-21T02:32:59.729Z,8.97
2018-10-21T02:35:28.663Z,10.13
2018-10-21T02:37:58.085Z,8.80
2018-10-21T02:41:39.653Z,9.50
2018-10-21T02:44:09.626Z,8.93
2018-10-21T02:46:38.853Z,8.20
2018-10-21T02:49:08.798Z,9.23
2018-10-21T02:51:37.781Z,9.20
2018-10-21T02:54:06.976Z,9.20
2018-10-21T02:56:35.742Z,10.27
2018-10-21T02:59:04.841Z,9.97
2018-10-21T03:01:33.583Z,8.83
2018-10-21T03:04:02.245Z,9.10
2018-10-21T03:06:31.688Z,9.30
2018-10-21T03:09:00.936Z,9.97
2018-10-21T03:11:30.071Z,9.80
2018-10-21T03:13:58.646Z,11.20
2018-10-21T03:16:27.284Z,9.57
2018-10-21T03:18:55.908Z,8.47
2018-10-21T03:21:24.513Z,10.67
2018-10-21T03:23:53.291Z,10.20
2018-10-21T03:26:22.068Z,9.40
2018-10-21T03:28:50.918Z,9.10
2018-10-21T03:31:19.558Z,9.23
2018-10-21T03:33:48.325Z,9.57
2018-10-21T03:36:16.965Z,9.30
2018-10-21T03:38:45.549Z,9.20
2018-10-21T03:41:14.218Z,9.73
2018-10-21T03:43:42.846Z,10.50
2018-10-21T03:46:13.025Z,10.00
2018-10-21T03:48:41.963Z,9.53
2018-10-21T03:51:12.033Z,9.90
2018-10-21T03:53:40.672Z,9.67
2018-10-21T03:56:09.929Z,9.17
2018-10-21T03:58:39.109Z,8.97
2018-10-21T04:01:08.588Z,8.70
2018-10-21T04:03:37.272Z,9.80
2018-10-21T04:06:06.037Z,9.60
2018-10-21T04:08:34.721Z,9.63
2018-10-21T04:11:03.379Z,10.10
2018-10-21T04:13:32.032Z,9.47
2018-10-21T04:16:00.727Z,9.20
2018-10-21T04:18:29.258Z,9.37
2018-10-21T04:20:57.934Z,9.80
2018-10-21T04:23:26.550Z,9.23
2018-10-21T04:25:55.161Z,9.93
2018-10-21T04:28:24.075Z,10.60
2018-10-21T04:30:52.778Z,9.07
2018-10-21T04:33:52.186Z,10.10
2018-10-21T04:36:23.327Z,9.30
2018-10-21T04:40:03.861Z,9.40
2018-10-21T04:42:32.731Z,9.30
2018-10-21T04:45:02.047Z,8.90
2018-10-21T04:47:31.893Z,9.27
2018-10-21T04:50:00.531Z,9.73
2018-10-21T04:52:30.425Z,7.90
2018-10-21T04:55:04.765Z,8.90
2018-10-21T04:57:33.641Z,9.73
2018-10-21T05:00:02.440Z,9.80
2018-10-21T05:02:32.003Z,9.93
2018-10-21T05:05:00.816Z,9.47
2018-10-21T05:07:29.706Z,9.17
2018-10-21T05:09:58.335Z,9.47
2018-10-21T05:12:26.977Z,9.03
2018-10-21T05:14:55.644Z,10.47
2018-10-21T05:17:24.399Z,10.20
2018-10-21T05:19:53.060Z,9.43
2018-10-21T05:22:21.628Z,9.10
2018-10-21T05:24:50.284Z,9.33
2018-10-21T05:27:19.267Z,10.60
2018-10-21T05:29:47.836Z,9.67
2018-10-21T05:32:16.416Z,9.77
2018-10-21T05:34:45.191Z,10.00
2018-10-21T05:37:13.765Z,10.20
2018-10-21T05:39:42.554Z,10.50
2018-10-21T05:42:11.149Z,9.30
2018-10-21T05:44:39.717Z,10.60
2018-10-21T05:47:08.382Z,10.20
2018-10-21T05:49:36.981Z,9.97
2018-10-21T05:52:06.138Z,9.80
2018-10-21T05:54:38.794Z,9.53
2018-10-21T05:57:07.517Z,9.90
2018-10-21T05:59:36.142Z,9.50
2018-10-21T06:02:04.933Z,10.30
2018-10-21T06:04:33.756Z,9.90
2018-10-21T06:07:02.418Z,10.30
2018-10-21T06:09:31.037Z,9.53
2018-10-21T06:12:00.056Z,9.97
2018-10-21T06:14:28.654Z,10.10
2018-10-21T06:16:59.779Z,10.43
2018-10-21T06:19:35.832Z,10.90
2018-10-21T06:22:05.605Z,13.00
2018-10-21T06:24:34.092Z,11.93
2018-10-21T06:27:02.784Z,10.33
2018-10-21T06:29:31.283Z,9.83
2018-10-21T06:31:59.879Z,10.27
2018-10-21T06:34:28.654Z,8.97
2018-10-21T06:36:57.248Z,10.97
2018-10-21T06:39:25.850Z,11.03
2018-10-21T06:41:54.401Z,10.10
2018-10-21T06:44:23.076Z,11.30
2018-10-21T06:46:51.896Z,10.33
2018-10-21T06:49:20.652Z,10.97
2018-10-21T06:51:49.341Z,10.60
2018-10-21T06:54:18.034Z,10.27
2018-10-21T06:56:47.044Z,11.20
2018-10-21T06:59:15.525Z,14.73
2018-10-21T07:01:44.124Z,12.50
2018-10-21T07:04:12.907Z,10.97
2018-10-21T07:06:41.528Z,10.00
2018-10-21T07:09:10.117Z,11.10
2018-10-21T07:11:39.208Z,10.90
2018-10-21T07:14:07.820Z,10.70
2018-10-21T07:16:36.688Z,11.47
2018-10-21T07:19:05.386Z,12.33
2018-10-21T07:21:33.927Z,11.23
2018-10-21T07:24:02.534Z,11.43
2018-10-21T07:26:31.125Z,10.77
2018-10-21T07:28:59.732Z,12.07
2018-10-21T07:31:28.319Z,11.00
2018-10-21T07:33:57.585Z,12.67
2018-10-21T07:36:26.485Z,12.73
2018-10-21T07:38:55.207Z,12.23
2018-10-21T07:41:23.748Z,12.80
2018-10-21T07:43:52.340Z,10.67
2018-10-21T07:46:20.959Z,12.83
2018-10-21T07:48:49.711Z,15.40
2018-10-21T07:51:18.281Z,13.90
2018-10-21T07:53:47.236Z,12.13
2018-10-21T07:56:16.041Z,12.57
2018-10-21T07:58:44.670Z,13.73
2018-10-21T08:01:13.405Z,13.77
2018-10-21T08:03:41.935Z,13.60
2018-10-21T08:06:24.468Z,12.07
2018-10-21T08:08:53.036Z,12.27
2018-10-21T08:11:21.626Z,12.57
2018-10-21T08:13:50.280Z,13.63
2018-10-21T08:16:19.012Z,14.30
2018-10-21T08:18:48.972Z,14.20
2018-10-21T08:21:17.654Z,13.40
2018-10-21T08:23:46.248Z,13.97
2018-10-21T08:26:14.857Z,12.40
2018-10-21T08:28:43.411Z,14.13
2018-10-21T08:31:12.681Z,13.57
2018-10-21T08:33:42.336Z,14.43
2018-10-21T08:36:10.941Z,13.90
2018-10-21T08:38:40.167Z,12.93
2018-10-21T08:41:08.885Z,14.20
2018-10-21T08:43:37.517Z,15.10
2018-10-21T08:46:06.246Z,14.83
2018-10-21T08:48:34.920Z,14.60
2018-10-21T08:51:03.553Z,14.40
2018-10-21T08:53:32.083Z,13.50
2018-10-21T08:56:00.751Z,14.50
2018-10-21T08:58:29.331Z,13.70
2018-10-21T09:00:57.897Z,14.30
2018-10-21T09:03:26.463Z,13.27
2018-10-21T09:05:55.025Z,13.43
2018-10-21T09:08:23.578Z,13.47
2018-10-21T09:10:52.178Z,13.43
2018-10-21T09:13:20.709Z,13.50
2018-10-21T09:15:49.329Z,12.77
2018-10-21T09:18:17.894Z,12.33
2018-10-21T09:20:46.509Z,11.77
2018-10-21T09:23:15.508Z,11.97
2018-10-21T09:25:44.056Z,11.70
2018-10-21T09:28:13.056Z,12.10
2018-10-21T09:30:41.628Z,12.00
2018-10-21T09:33:10.452Z,13.07
2018-10-21T09:35:39.184Z,12.93
2018-10-21T09:38:07.767Z,11.50
2018-10-21T09:40:36.480Z,12.00
2018-10-21T09:43:05.531Z,11.70
2018-10-21T09:45:34.180Z,10.10
2018-10-21T09:48:02.762Z,10.23
2018-10-21T09:50:31.365Z,10.60
2018-10-21T09:53:00.160Z,9.40
2018-10-21T09:55:28.714Z,10.07
2018-10-21T09:57:57.343Z,10.40
2018-10-21T10:00:31.370Z,8.07
2018-10-21T10:03:04.284Z,8.70
2018-10-21T10:05:33.089Z,7.00
2018-10-21T10:08:01.997Z,7.17
2018-10-21T10:10:30.545Z,7.00
2018-10-21T10:12:59.322Z,5.60
2018-10-21T10:15:28.004Z,5.63
2018-10-21T10:17:56.639Z,6.30
2018-10-21T10:20:25.300Z,7.20
2018-10-21T10:22:54.089Z,6.70
2018-10-21T10:25:22.784Z,8.03
2018-10-21T10:27:52.316Z,6.60
2018-10-21T10:30:20.942Z,7.77
2018-10-21T10:32:49.587Z,7.70
2018-10-21T10:35:18.179Z,7.10
2018-10-21T10:37:47.477Z,7.90
2018-10-21T10:40:16.193Z,7.23
2018-10-21T10:42:44.730Z,6.97
2018-10-21T10:45:13.359Z,7.07
2018-10-21T10:47:43.600Z,7.60
2018-10-21T10:50:12.684Z,8.73
2018-10-21T10:52:41.267Z,8.03
2018-10-21T10:55:10.443Z,7.40
2018-10-21T10:57:39.156Z,6.77
2018-10-21T11:00:09.775Z,7.30
2018-10-21T11:02:38.263Z,5.93
2018-10-21T11:05:08.011Z,6.17
2018-10-21T11:07:36.671Z,6.63
2018-10-21T11:10:06.577Z,5.80
2018-10-21T11:12:35.132Z,4.83
2018-10-21T11:15:03.810Z,7.03
2018-10-21T11:17:33.245Z,6.23
2018-10-21T11:20:01.942Z,5.90
2018-10-21T11:22:30.555Z,5.80
2018-10-21T11:24:59.545Z,5.93
2018-10-21T11:27:28.262Z,5.90
2018-10-21T11:29:57.737Z,6.40
2018-10-21T11:32:26.327Z,4.83
2018-10-21T11:34:54.989Z,5.37
2018-10-21T11:37:23.659Z,5.30
2018-10-21T11:39:52.163Z,5.50
2018-10-21T11:42:20.916Z,4.60
2018-10-21T11:44:49.545Z,4.73
2018-10-21T11:47:18.186Z,5.00
2018-10-21T11:49:46.833Z,4.23
2018-10-21T11:52:15.658Z,4.37
2018-10-21T11:54:44.673Z,4.27
2018-10-21T11:57:13.310Z,4.33
2018-10-21T11:59:42.056Z,5.17
2018-10-21T12:02:11.472Z,4.50
2018-10-21T12:04:40.155Z,3.90
2018-10-21T12:07:08.874Z,4.70
2018-10-21T12:09:37.432Z,4.07
2018-10-21T12:12:06.172Z,4.43
2018-10-21T12:14:35.887Z,4.80
2018-10-21T12:17:04.772Z,4.37
2018-10-21T12:19:33.434Z,4.57
2018-10-21T12:22:02.136Z,4.20
2018-10-21T12:24:30.681Z,3.90
2018-10-21T12:26:59.896Z,4.00
2018-10-21T12:29:28.515Z,4.07
2018-10-21T12:31:57.157Z,4.43
2018-10-21T12:34:26.407Z,3.50
2018-10-21T12:36:55.177Z,2.93
2018-10-21T12:39:23.745Z,2.83
2018-10-21T12:41:52.743Z,3.20
2018-10-21T12:44:21.347Z,3.27
2018-10-21T12:46:50.068Z,2.57
2018-10-21T12:49:18.847Z,2.47
2018-10-21T12:51:47.392Z,2.47
2018-10-21T12:54:16.120Z,2.70
2018-10-21T12:56:44.663Z,2.30
2018-10-21T12:59:13.255Z,1.77
2018-10-21T13:01:41.924Z,2.63
2018-10-21T13:04:10.612Z,2.73
2018-10-21T13:06:39.298Z,2.10
2018-10-21T13:09:08.577Z,2.20
2018-10-21T13:11:37.240Z,1.70
2018-10-21T13:14:05.917Z,1.80
2018-10-21T13:16:34.672Z,2.37
2018-10-21T13:19:03.378Z,2.07
2018-10-21T13:21:32.001Z,2.83
2018-10-21T13:24:00.595Z,2.10
2018-10-21T13:26:29.136Z,1.90
2018-10-21T13:28:58.504Z,2.20
2018-10-21T13:31:27.075Z,2.70
2018-10-21T13:33:55.709Z,2.97
2018-10-21T13:36:24.329Z,2.27
2018-10-21T13:38:52.925Z,2.23
2018-10-21T13:41:21.551Z,2.20
2018-10-21T13:43:50.298Z,2.40
2018-10-21T13:46:19.033Z,1.83
2018-10-21T13:48:47.736Z,2.40
2018-10-21T13:51:16.421Z,2.40
2018-10-21T13:53:46.358Z,2.77
2018-10-21T13:56:15.056Z,2.60
2018-10-21T13:58:43.801Z,1.33
2018-10-21T14:01:12.528Z,2.97
2018-10-21T14:03:41.099Z,2.17
2018-10-21T14:06:09.748Z,1.90
2018-10-21T14:08:38.969Z,2.00
2018-10-21T14:11:07.698Z,1.90
2018-10-21T14:13:36.272Z,2.20
2018-10-21T14:16:05.261Z,2.20
2018-10-21T14:18:34.968Z,2.60
2018-10-21T14:21:03.950Z,2.20
2018-10-21T14:23:32.518Z,2.87
2018-10-21T14:26:01.136Z,7.40
2018-10-21T14:28:29.814Z,1.97
2018-10-21T14:30:58.485Z,2.00
2018-10-21T14:33:27.073Z,2.70
2018-10-21T14:35:55.682Z,2.20
2018-10-21T14:38:24.453Z,2.17
2018-10-21T14:40:53.014Z,1.90
2018-10-21T14:43:21.759Z,2.00
2018-10-21T14:45:50.516Z,2.23
2018-10-21T14:48:19.226Z,2.10
2018-10-21T14:50:47.858Z,3.37
2018-10-21T14:53:16.487Z,2.13
2018-10-21T14:55:46.124Z,2.30
2018-10-21T14:58:14.738Z,2.80
2018-10-21T15:00:43.534Z,1.90
2018-10-21T15:03:12.299Z,3.73
2018-10-21T15:05:40.939Z,2.90
2018-10-21T15:08:09.891Z,2.30
2018-10-21T15:10:38.411Z,2.47
2018-10-21T15:13:07.159Z,1.90
2018-10-21T15:15:35.985Z,2.20
2018-10-21T15:18:04.710Z,2.77
2018-10-21T15:20:33.543Z,1.90
2018-10-21T15:23:02.187Z,2.80
2018-10-21T15:25:30.895Z,2.50
2018-10-21T15:27:59.823Z,2.30
2018-10-21T15:30:28.392Z,2.13
2018-10-21T15:32:57.071Z,2.50
2018-10-21T15:35:25.785Z,2.90
2018-10-21T15:37:54.677Z,1.97
2018-10-21T15:40:23.241Z,2.77
2018-10-21T15:42:52.383Z,2.57
2018-10-21T15:45:20.985Z,2.70
2018-10-21T15:47:49.566Z,2.60
2018-10-21T15:50:18.433Z,2.90
2018-10-21T15:52:46.919Z,2.53
2018-10-21T15:55:15.504Z,1.73
2018-10-21T15:57:44.105Z,2.47
2018-10-21T16:00:13.297Z,1.93
2018-10-21T16:02:42.474Z,2.10
2018-10-21T16:05:11.784Z,2.53
2018-10-21T16:07:40.615Z,2.20
2018-10-21T16:10:10.226Z,2.20
2018-10-21T16:12:39.222Z,5.63
2018-10-21T16:15:11.389Z,4.90
2018-10-21T16:17:40.060Z,2.63
2018-10-21T16:20:08.921Z,2.93
2018-10-21T16:22:39.113Z,3.00
2018-10-21T16:25:10.736Z,4.00
2018-10-21T16:27:39.522Z,3.50
2018-10-21T16:30:10.621Z,3.43
2018-10-21T16:32:39.729Z,6.33
2018-10-21T16:35:09.169Z,5.83
2018-10-21T16:37:38.249Z,5.30
2018-10-21T16:40:09.000Z,5.00
2018-10-21T16:42:38.081Z,4.30
2018-10-21T16:45:09.970Z,4.60
2018-10-21T16:47:39.204Z,16.47
2018-10-21T16:50:12.710Z,10.10
2018-10-21T16:52:42.402Z,4.40
2018-10-21T16:55:11.671Z,3.40
2018-10-21T16:57:40.578Z,3.30
2018-10-21T17:00:12.316Z,3.93
2018-10-21T17:02:41.480Z,3.33
2018-10-21T17:05:10.430Z,5.00
2018-10-21T17:07:39.289Z,3.10
2018-10-21T17:10:09.533Z,3.73
2018-10-21T17:12:38.133Z,4.17
2018-10-21T17:15:07.900Z,5.23
2018-10-21T17:17:36.910Z,3.50
2018-10-21T17:20:09.288Z,3.30
2018-10-21T17:22:38.344Z,2.63
2018-10-21T17:25:07.472Z,2.70
2018-10-21T17:27:36.275Z,2.73
2018-10-21T17:30:08.863Z,2.77
2018-10-21T17:32:38.184Z,2.87
2018-10-21T17:35:07.896Z,1.90
2018-10-21T17:37:36.847Z,2.93
2018-10-21T17:40:06.579Z,2.40
2018-10-21T17:42:35.238Z,2.80
2018-10-21T17:45:04.502Z,2.70
2018-10-21T17:47:33.157Z,3.03
2018-10-21T17:50:02.023Z,2.60
2018-10-21T17:52:30.935Z,2.80
2018-10-21T17:54:59.625Z,2.80
2018-10-21T17:57:28.348Z,2.90
2018-10-21T17:59:57.141Z,2.53
2018-10-21T18:02:27.027Z,2.50
2018-10-21T18:04:55.721Z,3.90
2018-10-21T18:07:24.560Z,3.40
2018-10-21T18:09:53.181Z,4.23
2018-10-21T18:12:22.177Z,3.53
2018-10-21T18:14:51.195Z,3.33
2018-10-21T18:17:19.960Z,3.10
2018-10-21T18:19:49.186Z,3.70
2018-10-21T18:22:18.002Z,3.80
2018-10-21T18:24:46.910Z,4.10
2018-10-21T18:27:15.677Z,3.53
2018-10-21T18:29:44.331Z,3.37
2018-10-21T18:32:13.154Z,3.20
2018-10-21T18:34:42.300Z,3.00
2018-10-21T18:37:11.081Z,2.60
2018-10-21T18:39:39.715Z,2.90
2018-10-21T18:42:09.217Z,3.20
2018-10-21T18:44:37.999Z,3.20
2018-10-21T18:47:06.909Z,3.30
2018-10-21T18:49:35.975Z,3.50
2018-10-21T18:52:04.925Z,5.23
2018-10-21T18:54:33.549Z,3.13
2018-10-21T18:57:02.557Z,3.40
2018-10-21T18:59:31.380Z,3.30
2018-10-21T19:02:00.592Z,3.30
2018-10-21T19:04:29.274Z,2.40
2018-10-21T19:06:58.158Z,3.60
2018-10-21T19:09:27.441Z,3.10
2018-10-21T19:11:56.188Z,2.70
2018-10-21T19:14:25.036Z,3.43
2018-10-21T19:16:54.359Z,3.97
2018-10-21T19:19:23.136Z,3.73
2018-10-21T19:21:51.844Z,3.50
2018-10-21T19:24:20.680Z,3.10
2018-10-21T19:26:49.974Z,3.47
2018-10-21T19:29:18.695Z,3.30
2018-10-21T19:31:47.726Z,3.20
2018-10-21T19:34:16.459Z,3.37
2018-10-21T19:36:46.072Z,3.50
2018-10-21T19:39:14.767Z,2.87
2018-10-21T19:41:43.522Z,3.50
2018-10-21T19:44:12.408Z,2.90
2018-10-21T19:46:41.028Z,3.70
2018-10-21T19:49:10.030Z,3.40
2018-10-21T19:51:38.612Z,2.93
2018-10-21T19:54:07.311Z,2.83
2018-10-21T19:56:36.365Z,3.10
2018-10-21T19:59:05.430Z,3.57
2018-10-21T20:01:34.135Z,3.67
2018-10-21T20:04:02.812Z,3.13
2018-10-21T20:06:31.437Z,3.33
2018-10-21T20:09:00.191Z,3.60
2018-10-21T20:11:28.784Z,4.10
2018-10-21T20:13:58.312Z,3.00
2018-10-21T20:16:26.972Z,3.93
2018-10-21T20:18:55.643Z,3.43
2018-10-21T20:21:24.320Z,3.67
2018-10-21T20:23:53.069Z,3.83
2018-10-21T20:26:21.966Z,3.50
2018-10-21T20:28:50.552Z,3.50
2018-10-21T20:31:19.471Z,3.77
2018-10-21T20:33:48.380Z,3.43
2018-10-21T20:36:17.109Z,4.23
2018-10-21T20:38:45.683Z,4.40
2018-10-21T20:41:14.304Z,4.30
2018-10-21T20:43:43.125Z,3.40
2018-10-21T20:46:12.052Z,3.53
2018-10-21T20:48:40.580Z,4.20
2018-10-21T20:51:09.499Z,3.23
2018-10-21T20:53:38.301Z,3.10
2018-10-21T20:56:07.515Z,3.43
2018-10-21T20:58:36.231Z,4.50
2018-10-21T21:01:04.875Z,3.60
2018-10-21T21:03:33.825Z,3.97
2018-10-21T21:06:02.663Z,3.17
2018-10-21T21:08:31.219Z,3.57
2018-10-21T21:10:59.837Z,3.80
2018-10-21T21:13:28.472Z,3.50
2018-10-21T21:15:57.161Z,3.10
2018-10-21T21:18:25.985Z,3.50
2018-10-21T21:20:54.790Z,3.80
2018-10-21T21:23:23.532Z,3.93
2018-10-21T21:25:52.251Z,4.10
2018-10-21T21:28:20.880Z,3.80
2018-10-21T21:30:49.624Z,4.10
2018-10-21T21:33:18.240Z,4.00
2018-10-21T21:35:46.787Z,4.67
2018-10-21T21:38:15.483Z,4.20
2018-10-21T21:40:44.739Z,4.57
2018-10-21T21:43:13.464Z,4.97
2018-10-21T21:45:42.444Z,4.20
2018-10-21T21:48:11.168Z,5.20
2018-10-21T21:50:39.920Z,5.63
2018-10-21T21:53:08.683Z,4.40
2018-10-21T21:55:37.329Z,4.77
2018-10-21T21:58:06.398Z,5.50
2018-10-21T22:00:35.059Z,4.30
2018-10-21T22:03:04.717Z,4.43
2018-10-21T22:05:33.319Z,4.17
2018-10-21T22:08:02.200Z,4.50
2018-10-21T22:10:30.849Z,3.87
2018-10-21T22:12:59.517Z,4.50
2018-10-21T22:15:28.256Z,4.10
2018-10-21T22:17:56.925Z,4.70
2018-10-21T22:20:25.571Z,5.00
2018-10-21T22:22:54.258Z,4.60
2018-10-21T22:25:22.869Z,5.20
2018-10-21T22:27:51.430Z,5.10
2018-10-21T22:30:20.639Z,4.90
2018-10-21T22:32:49.204Z,5.03
2018-10-21T22:35:17.847Z,4.87
2018-10-21T22:37:46.464Z,4.87
2018-10-21T22:40:15.241Z,5.30
2018-10-21T22:42:43.888Z,6.00
2018-10-21T22:45:12.488Z,4.17
2018-10-21T22:47:41.116Z,4.93
2018-10-21T22:50:11.175Z,5.40
2018-10-21T22:52:40.206Z,6.13
2018-10-21T22:55:09.215Z,6.20
2018-10-21T22:57:38.132Z,5.03
2018-10-21T23:00:08.667Z,5.50
2018-10-21T23:02:37.285Z,5.60
2018-10-21T23:05:07.276Z,6.30
2018-10-21T23:07:36.146Z,5.00
2018-10-21T23:10:04.865Z,5.80
2018-10-21T23:12:33.480Z,6.97
2018-10-21T23:15:02.128Z,5.10
2018-10-21T23:17:30.800Z,5.50
2018-10-21T23:19:59.504Z,6.27
2018-10-21T23:22:28.147Z,5.60
2018-10-21T23:24:56.735Z,5.60
2018-10-21T23:27:25.492Z,5.87
2018-10-21T23:29:54.235Z,5.80
2018-10-21T23:32:23.057Z,5.63
2018-10-21T23:34:51.953Z,5.77
2018-10-21T23:37:20.593Z,4.90
2018-10-21T23:39:49.203Z,5.03
2018-10-21T23:42:17.897Z,5.47
2018-10-21T23:44:46.492Z,5.93
2018-10-21T23:47:15.049Z,5.70
2018-10-21T23:49:43.671Z,6.53
2018-10-21T23:52:12.241Z,5.87
2018-10-21T23:54:40.817Z,5.83
2018-10-21T23:57:09.396Z,6.07
2018-10-21T23:59:38.067Z,7.13
